SBBR/BSB METAR and TAF weather

Enter ICAO airport designator
Station Type Date Time Source
SBBR METAR 2019/05/26 23:00 UTC NOAA

SBBR 262300Z 12006KT 9999 SCT050 FEW053TCU 25/18 Q1020


Station Type Date Time Source
SBBR Decoded METAR 2019/05/26 23:00 UTC NOAA

Brasilia Aeroporto , Brazil (SBBR) 15-52S 047-56W 1061M
May 26, 2019 - 07:00 PM EDT / 2019.05.26 2300 UTC
Wind: from the ESE (120 degrees) at 7 MPH (6 KT):0
Visibility: greater than 7 mile(s):0
Sky conditions: partly cloudy
Weather: Towering cumulus clouds observed
Temperature: 77 F (25 C)
Dew Point: 64 F (18 C)
Relative Humidity: 65%
Pressure (altimeter): 30.12 in. Hg (1020 hPa)
ob: SBBR 262300Z 12006KT 9999 SCT050 FEW053TCU 25/18 Q1020
cycle: 23

Station Type Date Time Source
SBBR TAF 2019/05/26 18:35 UTC NOAA

TAF SBBR 261600Z 2618/2718 17005KT 8000 NSC TX28/2618Z TN16/2709Z
BECMG 2700/2702 24005KT
TEMPO 2706/2710 BCFG NSC
BECMG 2712/2714 01005KT
BECMG 2715/2717 15007KT
RMK PDB

Example: see airport list